Time;durP1;ratioP1;P1;durP2;ratioP2;P2;SDS_P1;SDS_P2;PMS_P1;PMS_P2;Temp;Humidity;BMP_temperature;BMP_pressure;BME280_temperature;BME280_humidity;BME280_pressure;Samples;Min_cycle;Max_cycle;Signal;HPM_P1;HPM_P2
2022/06/17 00:00:15;;;;;;;13.93;2.90;;;;;;;;;;5052337;28;20875;-79
2022/06/17 00:02:43;;;;;;;14.83;2.60;;;;;;;;;;5052517;28;20444;-80
2022/06/17 00:05:11;;;;;;;13.67;2.63;;;;;;;;;;5052384;28;20444;-80
2022/06/17 00:07:38;;;;;;;13.43;2.57;;;;;;;;;;5052301;28;20428;-80
2022/06/17 00:10:08;;;;;;;14.30;2.37;;;;;;;;;;5052450;28;20460;-78
2022/06/17 00:12:37;;;;;;;14.97;2.67;;;;;;;;;;5052720;28;20483;-79
2022/06/17 00:15:15;;;;;;;13.13;2.30;;;;;;;;;;5052176;28;20439;-80
2022/06/17 00:17:44;;;;;;;14.87;2.90;;;;;;;;;;5052039;28;20444;-79
2022/06/17 00:20:14;;;;;;;14.03;2.43;;;;;;;;;;5052203;28;20444;-79
2022/06/17 00:22:43;;;;;;;13.93;2.30;;;;;;;;;;5052092;28;20498;-79
2022/06/17 00:25:16;;;;;;;19.10;3.07;;;;;;;;;;5051896;28;20436;-79
2022/06/17 00:27:44;;;;;;;15.20;3.30;;;;;;;;;;5051941;28;20442;-79
2022/06/17 00:30:16;;;;;;;14.43;2.70;;;;;;;;;;5052040;28;20440;-79
2022/06/17 00:32:43;;;;;;;14.77;2.87;;;;;;;;;;5052013;28;20459;-79
2022/06/17 00:35:11;;;;;;;14.97;3.30;;;;;;;;;;5051107;28;20436;-80
2022/06/17 00:37:38;;;;;;;15.10;3.00;;;;;;;;;;5051920;28;20436;-79
2022/06/17 00:40:12;;;;;;;13.83;2.47;;;;;;;;;;5051881;28;20494;-79
2022/06/17 00:42:40;;;;;;;13.00;2.50;;;;;;;;;;5051874;28;20941;-79
2022/06/17 00:45:13;;;;;;;14.60;3.10;;;;;;;;;;5051815;28;20448;-79
2022/06/17 00:47:44;;;;;;;18.00;3.30;;;;;;;;;;5051675;28;20447;-78
2022/06/17 00:50:15;;;;;;;13.23;2.57;;;;;;;;;;5051752;28;20440;-79
2022/06/17 00:52:45;;;;;;;12.43;2.40;;;;;;;;;;5051666;28;20503;-80
2022/06/17 00:55:15;;;;;;;15.00;2.70;;;;;;;;;;5051955;28;20862;-79
2022/06/17 00:57:43;;;;;;;17.93;3.90;;;;;;;;;;5051546;28;20447;-79
2022/06/17 01:00:14;;;;;;;20.73;2.93;;;;;;;;;;5051636;28;20440;-78
2022/06/17 01:02:46;;;;;;;13.07;2.57;;;;;;;;;;5052307;28;20784;-79
2022/06/17 01:05:14;;;;;;;17.03;2.47;;;;;;;;;;5051502;28;20453;-80
2022/06/17 01:07:43;;;;;;;13.83;2.50;;;;;;;;;;5051408;28;20459;-79
2022/06/17 01:10:13;;;;;;;13.90;2.67;;;;;;;;;;5051614;28;20440;-78
2022/06/17 01:12:41;;;;;;;15.10;2.00;;;;;;;;;;5052102;28;20567;-79
2022/06/17 01:15:10;;;;;;;13.33;2.57;;;;;;;;;;5051601;28;20571;-80
2022/06/17 01:17:39;;;;;;;22.10;4.80;;;;;;;;;;5051571;28;20435;-80
2022/06/17 01:20:08;;;;;;;13.40;2.33;;;;;;;;;;5051997;28;20446;-80
2022/06/17 01:22:40;;;;;;;18.53;2.70;;;;;;;;;;5051620;28;20800;-79
2022/06/17 01:25:09;;;;;;;12.80;2.47;;;;;;;;;;5051425;28;20954;-80
2022/06/17 01:27:38;;;;;;;12.40;2.10;;;;;;;;;;5051310;28;20804;-80
2022/06/17 01:30:06;;;;;;;13.73;2.63;;;;;;;;;;5051447;28;20833;-80
2022/06/17 01:32:36;;;;;;;11.77;2.00;;;;;;;;;;5051250;28;20447;-80
2022/06/17 01:35:04;;;;;;;12.63;2.23;;;;;;;;;;5051288;28;20484;-80
2022/06/17 01:37:32;;;;;;;13.77;2.10;;;;;;;;;;5051128;28;20449;-77
2022/06/17 01:40:01;;;;;;;12.10;2.23;;;;;;;;;;5051182;28;20469;-80
2022/06/17 01:42:30;;;;;;;11.87;2.30;;;;;;;;;;5051409;28;20440;-80
2022/06/17 01:44:57;;;;;;;11.90;2.17;;;;;;;;;;5051341;28;20448;-80
2022/06/17 01:47:27;;;;;;;14.00;2.57;;;;;;;;;;5054650;28;20432;-80
2022/06/17 01:49:56;;;;;;;14.30;2.17;;;;;;;;;;5054859;28;20440;-80
2022/06/17 01:52:27;;;;;;;14.20;2.30;;;;;;;;;;5054697;28;20452;-80
2022/06/17 01:54:58;;;;;;;13.07;2.30;;;;;;;;;;5054689;28;21044;-80
2022/06/17 01:57:28;;;;;;;17.30;2.50;;;;;;;;;;5055204;28;20437;-79
2022/06/17 01:59:57;;;;;;;14.80;2.43;;;;;;;;;;5054471;28;20454;-80
2022/06/17 02:02:26;;;;;;;13.43;2.40;;;;;;;;;;5054675;28;20494;-80
2022/06/17 02:04:57;;;;;;;15.70;2.47;;;;;;;;;;5054286;28;20462;-79
2022/06/17 02:07:27;;;;;;;13.20;2.13;;;;;;;;;;5054586;28;20432;-80
2022/06/17 02:09:54;;;;;;;12.90;2.20;;;;;;;;;;5054958;28;20456;-80
2022/06/17 02:12:24;;;;;;;14.20;2.83;;;;;;;;;;5054395;28;20479;-80
2022/06/17 02:14:55;;;;;;;15.27;2.40;;;;;;;;;;5054308;28;20569;-80
2022/06/17 02:17:23;;;;;;;12.60;2.23;;;;;;;;;;5054330;28;20937;-80
2022/06/17 02:19:51;;;;;;;14.60;2.23;;;;;;;;;;5054159;28;20497;-79
2022/06/17 02:22:23;;;;;;;12.20;2.50;;;;;;;;;;5054428;28;20435;-80
2022/06/17 02:24:51;;;;;;;15.87;2.63;;;;;;;;;;5054525;28;20538;-80
2022/06/17 02:27:20;;;;;;;12.77;2.10;;;;;;;;;;5054262;28;20444;-80
2022/06/17 02:29:49;;;;;;;21.07;3.47;;;;;;;;;;5053852;28;20436;-79
2022/06/17 02:32:18;;;;;;;13.70;2.70;;;;;;;;;;5054426;28;20444;-80
2022/06/17 02:34:49;;;;;;;13.60;2.10;;;;;;;;;;5054161;28;20509;-80
2022/06/17 02:37:17;;;;;;;13.07;2.57;;;;;;;;;;5054492;28;20436;-80
2022/06/17 02:39:46;;;;;;;15.63;2.93;;;;;;;;;;5053751;28;20450;-80
2022/06/17 02:42:17;;;;;;;13.60;2.70;;;;;;;;;;5053944;28;20454;-80
2022/06/17 02:44:46;;;;;;;14.97;2.47;;;;;;;;;;5053873;28;20467;-80
2022/06/17 02:47:14;;;;;;;13.40;2.30;;;;;;;;;;5053859;28;20538;-80
2022/06/17 02:49:44;;;;;;;14.63;2.97;;;;;;;;;;5053605;28;20444;-80
2022/06/17 02:52:13;;;;;;;13.43;2.77;;;;;;;;;;5054336;28;20952;-79
2022/06/17 02:54:41;;;;;;;13.40;2.37;;;;;;;;;;5053578;28;20570;-78
2022/06/17 02:57:10;;;;;;;22.57;2.60;;;;;;;;;;5052717;28;20444;-80
2022/06/17 02:59:40;;;;;;;20.20;4.30;;;;;;;;;;5053505;28;20795;-80
2022/06/17 03:02:13;;;;;;;13.43;3.10;;;;;;;;;;5054058;28;20805;-80
2022/06/17 03:04:45;;;;;;;15.13;2.73;;;;;;;;;;5053319;28;20459;-79
2022/06/17 03:07:15;;;;;;;16.23;3.03;;;;;;;;;;5053447;28;20448;-79
2022/06/17 03:09:43;;;;;;;16.10;3.50;;;;;;;;;;5052960;28;20851;-79
2022/06/17 03:12:11;;;;;;;13.90;2.57;;;;;;;;;;5053254;28;20476;-80
2022/06/17 03:14:41;;;;;;;18.93;3.07;;;;;;;;;;5053267;28;20487;-80
2022/06/17 03:17:09;;;;;;;17.23;2.97;;;;;;;;;;5053268;28;20447;-80
2022/06/17 03:19:37;;;;;;;20.57;4.37;;;;;;;;;;5052806;28;20971;-80
2022/06/17 03:22:08;;;;;;;13.23;2.37;;;;;;;;;;5053000;28;20446;-80
2022/06/17 03:24:43;;;;;;;20.20;2.40;;;;;;;;;;5053611;28;20456;-80
2022/06/17 03:27:13;;;;;;;14.40;3.00;;;;;;;;;;5053160;28;20439;-79
2022/06/17 03:29:41;;;;;;;19.10;4.37;;;;;;;;;;5052225;28;20440;-79
2022/06/17 03:32:10;;;;;;;17.63;2.90;;;;;;;;;;5052650;28;20448;-78
2022/06/17 03:34:39;;;;;;;12.67;2.47;;;;;;;;;;5052637;28;20478;-79
2022/06/17 03:37:10;;;;;;;13.40;2.97;;;;;;;;;;5052766;28;20444;-76
2022/06/17 03:39:39;;;;;;;18.73;3.93;;;;;;;;;;5052757;28;20864;-78
2022/06/17 03:42:08;;;;;;;13.43;2.67;;;;;;;;;;5052822;28;20811;-77
2022/06/17 03:44:38;;;;;;;15.20;3.10;;;;;;;;;;5052890;28;21024;-84
2022/06/17 03:47:08;;;;;;;12.90;2.60;;;;;;;;;;5052467;28;20885;-84
2022/06/17 03:49:39;;;;;;;14.37;3.03;;;;;;;;;;5051874;28;20870;-79
2022/06/17 03:52:13;;;;;;;13.40;2.70;;;;;;;;;;5050783;28;20444;-79
2022/06/17 03:54:40;;;;;;;15.53;3.37;;;;;;;;;;5037446;28;20503;-77
2022/06/17 03:57:10;;;;;;;13.87;3.40;;;;;;;;;;5044719;28;20473;-77
2022/06/17 03:59:38;;;;;;;21.50;5.20;;;;;;;;;;5057729;28;20917;-76
2022/06/17 04:02:08;;;;;;;15.03;3.10;;;;;;;;;;5058942;28;20503;-76
2022/06/17 04:04:39;;;;;;;14.93;3.67;;;;;;;;;;5062725;28;20480;-78
2022/06/17 04:07:07;;;;;;;12.93;2.30;;;;;;;;;;5063693;28;20861;-78
2022/06/17 04:09:39;;;;;;;15.23;2.80;;;;;;;;;;5060228;28;20487;-76
2022/06/17 04:12:19;;;;;;;15.20;2.43;;;;;;;;;;5069801;28;20484;-77
2022/06/17 04:14:48;;;;;;;13.90;2.80;;;;;;;;;;5069670;28;20505;-74
2022/06/17 04:17:18;;;;;;;15.40;2.70;;;;;;;;;;5069742;28;20516;-75
2022/06/17 04:19:48;;;;;;;17.00;3.37;;;;;;;;;;5069199;28;21018;-75
2022/06/17 04:22:17;;;;;;;14.17;2.70;;;;;;;;;;5068423;28;20469;-79
2022/06/17 04:24:48;;;;;;;12.50;2.20;;;;;;;;;;5070855;28;20470;-80
2022/06/17 04:27:16;;;;;;;12.40;2.20;;;;;;;;;;5072111;28;20462;-80
2022/06/17 04:29:45;;;;;;;15.93;2.67;;;;;;;;;;5071145;28;20469;-81
2022/06/17 04:32:15;;;;;;;12.97;2.00;;;;;;;;;;5071758;28;20470;-78
2022/06/17 04:34:43;;;;;;;14.00;2.20;;;;;;;;;;5071594;28;20501;-80
2022/06/17 04:37:19;;;;;;;14.50;2.40;;;;;;;;;;5071344;28;20459;-78
2022/06/17 04:39:50;;;;;;;13.70;2.70;;;;;;;;;;5058792;28;20514;-79
2022/06/17 04:42:19;;;;;;;12.40;2.30;;;;;;;;;;5051748;28;20473;-80
2022/06/17 04:44:46;;;;;;;13.80;2.70;;;;;;;;;;5051147;28;20488;-78
2022/06/17 04:47:15;;;;;;;17.30;2.43;;;;;;;;;;5051289;28;21002;-79
2022/06/17 04:49:44;;;;;;;16.50;4.10;;;;;;;;;;5050453;28;20481;-79
2022/06/17 04:52:17;;;;;;;13.07;2.57;;;;;;;;;;5050428;28;20818;-79
2022/06/17 04:54:45;;;;;;;13.17;2.67;;;;;;;;;;5051448;28;20489;-82
2022/06/17 04:57:15;;;;;;;15.10;3.00;;;;;;;;;;5049695;28;20458;-81
2022/06/17 04:59:44;;;;;;;15.70;3.20;;;;;;;;;;5049833;28;20458;-81
2022/06/17 05:02:14;;;;;;;13.57;2.50;;;;;;;;;;5049867;28;20436;-80
2022/06/17 05:04:41;;;;;;;15.93;4.10;;;;;;;;;;5050289;28;20550;-78
2022/06/17 05:07:09;;;;;;;15.07;3.30;;;;;;;;;;5050798;28;20918;-77
2022/06/17 05:09:42;;;;;;;14.00;3.00;;;;;;;;;;5049400;28;20458;-78
2022/06/17 05:12:13;;;;;;;15.10;2.90;;;;;;;;;;5049284;28;20479;-78
2022/06/17 05:14:46;;;;;;;13.73;2.50;;;;;;;;;;5049123;28;20480;-77
2022/06/17 05:17:14;;;;;;;14.30;2.70;;;;;;;;;;5049263;28;20997;-77
2022/06/17 05:19:41;;;;;;;18.40;3.37;;;;;;;;;;5048961;28;20800;-78
2022/06/17 05:22:13;;;;;;;16.73;3.47;;;;;;;;;;5052453;28;20454;-78
2022/06/17 05:24:40;;;;;;;14.33;2.93;;;;;;;;;;5054527;28;20443;-78
2022/06/17 05:27:07;;;;;;;13.63;2.83;;;;;;;;;;5054992;28;20435;-77
2022/06/17 05:29:35;;;;;;;15.20;3.10;;;;;;;;;;5055019;28;20440;-78
2022/06/17 05:32:05;;;;;;;13.67;3.50;;;;;;;;;;5055044;28;20440;-77
2022/06/17 05:34:32;;;;;;;16.10;4.00;;;;;;;;;;5054965;28;20448;-78
2022/06/17 05:37:00;;;;;;;13.80;2.53;;;;;;;;;;5054980;28;20451;-78
2022/06/17 05:39:27;;;;;;;20.37;3.03;;;;;;;;;;5054637;28;20461;-78
2022/06/17 05:41:54;;;;;;;13.77;2.67;;;;;;;;;;5054451;28;20447;-78
2022/06/17 05:44:22;;;;;;;15.17;3.17;;;;;;;;;;5054944;28;20440;-78
2022/06/17 05:46:50;;;;;;;16.13;3.07;;;;;;;;;;5055229;28;20448;-78
2022/06/17 05:49:20;;;;;;;18.80;2.63;;;;;;;;;;5054719;28;20439;-80
2022/06/17 05:51:48;;;;;;;14.80;2.90;;;;;;;;;;5054238;28;20439;-78
2022/06/17 05:54:15;;;;;;;14.53;2.60;;;;;;;;;;5054698;28;20977;-78
2022/06/17 05:56:42;;;;;;;17.80;2.90;;;;;;;;;;5054737;28;20498;-78
2022/06/17 05:59:11;;;;;;;17.00;3.27;;;;;;;;;;5054633;28;20443;-78
2022/06/17 06:01:38;;;;;;;16.97;3.43;;;;;;;;;;5054292;28;20859;-78
2022/06/17 06:04:06;;;;;;;17.03;4.40;;;;;;;;;;5054021;28;20455;-78
2022/06/17 06:06:52;;;;;;;14.40;2.90;;;;;;;;;;5054239;28;20964;-78
2022/06/17 06:09:21;;;;;;;15.50;3.10;;;;;;;;;;5054381;28;20462;-78
2022/06/17 06:11:49;;;;;;;21.50;4.13;;;;;;;;;;5054173;28;20479;-78
2022/06/17 06:14:16;;;;;;;15.97;3.93;;;;;;;;;;5054153;28;20972;-78
2022/06/17 06:16:44;;;;;;;15.17;3.20;;;;;;;;;;5054002;28;20566;-79
2022/06/17 06:19:11;;;;;;;15.23;3.70;;;;;;;;;;5053914;28;20448;-79
2022/06/17 06:21:39;;;;;;;15.60;3.50;;;;;;;;;;5053951;28;20443;-79
2022/06/17 06:24:06;;;;;;;16.37;3.70;;;;;;;;;;5053973;28;20451;-79
2022/06/17 06:26:36;;;;;;;14.80;3.07;;;;;;;;;;5054136;28;20831;-79
2022/06/17 06:29:06;;;;;;;14.53;3.53;;;;;;;;;;5053894;28;20436;-78
2022/06/17 06:31:35;;;;;;;17.23;3.90;;;;;;;;;;5053491;28;20494;-77
2022/06/17 06:34:02;;;;;;;13.40;2.90;;;;;;;;;;5054074;28;20440;-77
2022/06/17 06:36:30;;;;;;;14.20;2.87;;;;;;;;;;5054048;28;20977;-78
2022/06/17 06:38:57;;;;;;;15.13;3.47;;;;;;;;;;5053931;28;20440;-78
2022/06/17 06:41:26;;;;;;;19.47;3.03;;;;;;;;;;5053811;28;20427;-78
2022/06/17 06:43:55;;;;;;;15.80;3.50;;;;;;;;;;5053500;28;20443;-79
2022/06/17 06:46:24;;;;;;;16.77;3.43;;;;;;;;;;5053438;28;20443;-79
2022/06/17 06:48:51;;;;;;;14.73;3.60;;;;;;;;;;5053476;28;20505;-77
2022/06/17 06:51:20;;;;;;;17.50;3.50;;;;;;;;;;5053542;28;20438;-78
2022/06/17 06:53:48;;;;;;;16.53;4.13;;;;;;;;;;5053424;28;20432;-78
2022/06/17 06:56:15;;;;;;;14.30;3.47;;;;;;;;;;5053324;28;20873;-78
2022/06/17 06:58:43;;;;;;;16.83;3.93;;;;;;;;;;5053170;28;20432;-78
2022/06/17 07:01:12;;;;;;;16.17;3.87;;;;;;;;;;5053257;28;20452;-76
2022/06/17 07:03:40;;;;;;;16.50;4.60;;;;;;;;;;5052574;28;20459;-76
2022/06/17 07:06:07;;;;;;;16.30;3.87;;;;;;;;;;5053027;28;20953;-77
2022/06/17 07:08:35;;;;;;;13.53;3.00;;;;;;;;;;5053338;28;20440;-77
2022/06/17 07:11:05;;;;;;;14.50;3.60;;;;;;;;;;5053097;28;20867;-77
2022/06/17 07:13:33;;;;;;;14.60;3.10;;;;;;;;;;5052758;28;20960;-76
2022/06/17 07:16:01;;;;;;;13.40;3.23;;;;;;;;;;5052745;28;20574;-77
2022/06/17 07:18:31;;;;;;;13.03;2.93;;;;;;;;;;5052806;28;20447;-78
2022/06/17 07:21:00;;;;;;;13.00;2.93;;;;;;;;;;5053150;28;20446;-77
2022/06/17 07:23:29;;;;;;;14.43;2.70;;;;;;;;;;5052731;28;20442;-78
2022/06/17 07:25:57;;;;;;;16.50;4.13;;;;;;;;;;5053012;28;20539;-78
2022/06/17 07:28:25;;;;;;;27.60;4.50;;;;;;;;;;5052928;28;20450;-78
2022/06/17 07:30:54;;;;;;;14.97;2.83;;;;;;;;;;5052674;28;20560;-78
2022/06/17 07:33:22;;;;;;;15.40;2.90;;;;;;;;;;5052566;28;20523;-78
2022/06/17 07:35:53;;;;;;;15.00;3.13;;;;;;;;;;5052714;28;20856;-77
2022/06/17 07:41:07;;;;;;;12.50;2.43;;;;;;;;;;5053065;28;20443;-78
2022/06/17 07:43:35;;;;;;;16.10;2.77;;;;;;;;;;5052084;28;20441;-77
2022/06/17 07:46:04;;;;;;;14.17;2.90;;;;;;;;;;5052713;28;20476;-78
2022/06/17 07:48:32;;;;;;;12.50;2.67;;;;;;;;;;5052633;28;20424;-77
2022/06/17 07:51:01;;;;;;;13.37;2.63;;;;;;;;;;5052701;28;20447;-79
2022/06/17 07:53:30;;;;;;;13.63;2.60;;;;;;;;;;5052844;28;20506;-78
2022/06/17 07:55:57;;;;;;;13.27;2.77;;;;;;;;;;5052643;28;20483;-78
2022/06/17 07:58:25;;;;;;;16.03;2.50;;;;;;;;;;5052442;28;20451;-79
2022/06/17 08:00:52;;;;;;;12.30;2.50;;;;;;;;;;5052327;28;20451;-78
2022/06/17 08:03:20;;;;;;;16.73;2.90;;;;;;;;;;5051984;28;20467;-78
2022/06/17 08:05:49;;;;;;;13.23;2.70;;;;;;;;;;5052452;28;20444;-78
2022/06/17 08:08:22;;;;;;;13.17;3.17;;;;;;;;;;5052397;28;20466;-79
2022/06/17 08:10:50;;;;;;;13.40;3.10;;;;;;;;;;5052480;28;20804;-78
2022/06/17 08:13:18;;;;;;;13.77;2.83;;;;;;;;;;5052400;28;20440;-78
2022/06/17 08:15:46;;;;;;;13.47;2.80;;;;;;;;;;5051848;28;20483;-78
2022/06/17 08:18:13;;;;;;;13.17;2.40;;;;;;;;;;5052088;28;20443;-79
2022/06/17 08:20:41;;;;;;;12.47;2.20;;;;;;;;;;5052134;28;20436;-79
2022/06/17 08:23:09;;;;;;;14.57;2.30;;;;;;;;;;5052378;28;20435;-79
2022/06/17 08:25:39;;;;;;;14.20;2.70;;;;;;;;;;5051835;28;20451;-78
2022/06/17 08:28:07;;;;;;;13.23;2.50;;;;;;;;;;5051787;28;20455;-79
2022/06/17 08:30:36;;;;;;;13.17;2.90;;;;;;;;;;5051930;28;20455;-79
2022/06/17 08:33:04;;;;;;;14.57;3.00;;;;;;;;;;5052187;28;20894;-79
2022/06/17 08:35:33;;;;;;;13.07;2.77;;;;;;;;;;5051954;28;20463;-77
2022/06/17 08:38:02;;;;;;;12.33;2.37;;;;;;;;;;5052087;28;20493;-78
2022/06/17 08:40:36;;;;;;;13.70;3.30;;;;;;;;;;5051554;28;20444;-82
2022/06/17 08:43:11;;;;;;;13.20;2.77;;;;;;;;;;5051826;28;20439;-80
2022/06/17 08:45:43;;;;;;;13.10;2.80;;;;;;;;;;5051646;28;20436;-79
2022/06/17 08:48:15;;;;;;;12.83;2.80;;;;;;;;;;5051934;28;20522;-79
2022/06/17 08:50:51;;;;;;;14.13;2.90;;;;;;;;;;5051802;28;20953;-80
2022/06/17 08:53:33;;;;;;;16.17;2.90;;;;;;;;;;5051757;28;20508;-79
2022/06/17 08:56:04;;;;;;;15.23;2.97;;;;;;;;;;5053307;28;20510;-79
2022/06/17 08:58:38;;;;;;;13.43;2.83;;;;;;;;;;5055878;28;20448;-79
2022/06/17 09:01:15;;;;;;;13.10;3.33;;;;;;;;;;5055818;28;20435;-79
2022/06/17 09:04:00;;;;;;;14.87;3.80;;;;;;;;;;5055168;28;20456;-78
2022/06/17 09:06:32;;;;;;;16.60;3.60;;;;;;;;;;5055694;28;20440;-79
2022/06/17 09:09:10;;;;;;;13.20;2.90;;;;;;;;;;5055629;28;20439;-80
2022/06/17 09:11:40;;;;;;;16.60;3.17;;;;;;;;;;5055388;28;20479;-78
2022/06/17 09:14:16;;;;;;;13.63;3.10;;;;;;;;;;5055799;28;20458;-79
2022/06/17 09:16:49;;;;;;;15.97;3.77;;;;;;;;;;5055587;28;20485;-80
2022/06/17 09:19:19;;;;;;;14.13;3.10;;;;;;;;;;5056027;28;20817;-79
2022/06/17 09:21:49;;;;;;;14.03;3.30;;;;;;;;;;5055262;28;20440;-80
2022/06/17 09:24:19;;;;;;;13.10;2.90;;;;;;;;;;5055622;28;20481;-78
2022/06/17 09:26:50;;;;;;;14.37;3.27;;;;;;;;;;5055451;28;21009;-79
2022/06/17 09:29:22;;;;;;;13.67;3.10;;;;;;;;;;5055917;28;20436;-79
2022/06/17 09:31:51;;;;;;;17.93;3.90;;;;;;;;;;5055250;28;20991;-79
2022/06/17 09:34:25;;;;;;;14.43;3.50;;;;;;;;;;5055290;28;20463;-80
2022/06/17 09:36:56;;;;;;;18.43;2.97;;;;;;;;;;5054864;28;20573;-79
2022/06/17 09:39:26;;;;;;;14.60;3.27;;;;;;;;;;5055081;28;20949;-78
2022/06/17 09:41:55;;;;;;;21.20;3.47;;;;;;;;;;5054894;28;20812;-80
2022/06/17 09:44:29;;;;;;;16.30;4.13;;;;;;;;;;5054961;28;20448;-79
2022/06/17 09:47:03;;;;;;;15.13;3.10;;;;;;;;;;5054804;28;20971;-79
2022/06/17 09:49:33;;;;;;;13.63;3.23;;;;;;;;;;5054771;28;20471;-77
2022/06/17 09:52:05;;;;;;;14.50;2.90;;;;;;;;;;5055126;28;20440;-79
2022/06/17 09:54:34;;;;;;;17.63;3.30;;;;;;;;;;5055357;28;20470;-81
2022/06/17 09:57:04;;;;;;;14.27;2.90;;;;;;;;;;5054778;28;20901;-79
2022/06/17 09:59:35;;;;;;;13.47;2.93;;;;;;;;;;5054746;28;20443;-78
2022/06/17 10:02:13;;;;;;;13.87;3.23;;;;;;;;;;5055019;28;20444;-79
2022/06/17 10:04:41;;;;;;;16.90;3.00;;;;;;;;;;5054532;28;20459;-80
2022/06/17 10:07:11;;;;;;;12.67;3.13;;;;;;;;;;5054324;28;20818;-79
2022/06/17 10:09:43;;;;;;;14.13;2.77;;;;;;;;;;5054945;28;20452;-79
2022/06/17 10:12:14;;;;;;;13.40;3.03;;;;;;;;;;5054476;28;21082;-78
2022/06/17 10:14:56;;;;;;;17.40;3.10;;;;;;;;;;5054601;28;20459;-78
2022/06/17 10:20:18;;;;;;;12.80;2.80;;;;;;;;;;5054524;28;20423;-80
2022/06/17 10:22:51;;;;;;;13.37;3.30;;;;;;;;;;5054230;28;20445;-78
2022/06/17 10:25:27;;;;;;;14.37;3.33;;;;;;;;;;5054583;28;20830;-78
2022/06/17 10:28:04;;;;;;;13.07;2.80;;;;;;;;;;5054342;28;20451;-78
2022/06/17 10:30:41;;;;;;;13.67;3.43;;;;;;;;;;5054711;28;20452;-78
2022/06/17 10:33:11;;;;;;;13.43;3.30;;;;;;;;;;5054059;28;20444;-78
2022/06/17 10:35:40;;;;;;;19.53;2.73;;;;;;;;;;5054101;28;20432;-78
2022/06/17 10:38:09;;;;;;;14.83;3.20;;;;;;;;;;5054014;28;20486;-79
2022/06/17 10:40:38;;;;;;;16.53;4.13;;;;;;;;;;5054255;28;20451;-79
2022/06/17 10:43:07;;;;;;;14.40;3.53;;;;;;;;;;5053975;28;20440;-78
2022/06/17 10:45:36;;;;;;;14.37;3.50;;;;;;;;;;5053787;28;20869;-78
2022/06/17 10:48:06;;;;;;;15.60;3.70;;;;;;;;;;5054320;28;20791;-80
2022/06/17 10:50:34;;;;;;;14.10;3.40;;;;;;;;;;5053726;28;20435;-78
2022/06/17 10:53:04;;;;;;;13.97;3.10;;;;;;;;;;5054047;28;20882;-80
2022/06/17 10:55:35;;;;;;;14.20;3.27;;;;;;;;;;5053625;28;20510;-80
2022/06/17 10:58:07;;;;;;;16.43;3.37;;;;;;;;;;5053781;28;20482;-78
2022/06/17 11:00:42;;;;;;;27.33;3.80;;;;;;;;;;5053825;28;20941;-81
2022/06/17 11:03:19;;;;;;;24.40;3.73;;;;;;;;;;5053311;28;20957;-79
2022/06/17 11:05:53;;;;;;;15.97;3.83;;;;;;;;;;5053262;28;20436;-79
2022/06/17 11:08:22;;;;;;;15.23;3.07;;;;;;;;;;5053477;28;20451;-78
2022/06/17 11:10:52;;;;;;;13.27;3.10;;;;;;;;;;5053405;28;20452;-78
2022/06/17 11:13:21;;;;;;;15.50;3.20;;;;;;;;;;5053331;28;20444;-78
2022/06/17 11:15:53;;;;;;;17.83;4.10;;;;;;;;;;5053236;28;20428;-78
2022/06/17 11:18:23;;;;;;;14.90;4.10;;;;;;;;;;5052681;28;20480;-80
2022/06/17 11:20:56;;;;;;;13.90;3.00;;;;;;;;;;5053518;28;20448;-81
2022/06/17 11:23:24;;;;;;;13.93;3.57;;;;;;;;;;5053050;28;20995;-79
2022/06/17 11:25:55;;;;;;;13.87;3.33;;;;;;;;;;5053075;28;20451;-80
2022/06/17 11:28:24;;;;;;;13.27;3.23;;;;;;;;;;5053245;28;20450;-80
2022/06/17 11:30:54;;;;;;;15.30;3.50;;;;;;;;;;5052951;28;20929;-81
2022/06/17 11:33:25;;;;;;;14.27;3.40;;;;;;;;;;5052945;28;20950;-80
2022/06/17 11:36:00;;;;;;;13.60;3.17;;;;;;;;;;5053039;28;20523;-80
2022/06/17 11:38:28;;;;;;;15.47;3.53;;;;;;;;;;5053326;28;20570;-80
2022/06/17 11:40:56;;;;;;;14.60;2.90;;;;;;;;;;5052944;28;20438;-80
2022/06/17 11:43:26;;;;;;;17.50;3.13;;;;;;;;;;5052881;28;20873;-80
2022/06/17 11:45:56;;;;;;;13.80;3.87;;;;;;;;;;5052587;28;20432;-80
2022/06/17 11:48:23;;;;;;;13.27;2.90;;;;;;;;;;5053023;28;20438;-80
2022/06/17 11:51:02;;;;;;;14.70;3.13;;;;;;;;;;5052530;28;20443;-80
2022/06/17 11:53:31;;;;;;;16.43;4.07;;;;;;;;;;5052818;28;20527;-80
2022/06/17 11:55:59;;;;;;;17.83;3.53;;;;;;;;;;5052880;28;20452;-81
2022/06/17 11:58:26;;;;;;;13.10;2.77;;;;;;;;;;5052631;28;21072;-80
2022/06/17 12:00:58;;;;;;;14.73;3.73;;;;;;;;;;5052461;28;20440;-79
2022/06/17 12:03:41;;;;;;;13.53;3.27;;;;;;;;;;5052082;28;21012;-79
2022/06/17 12:06:19;;;;;;;13.37;3.13;;;;;;;;;;5052868;28;20460;-79
2022/06/17 12:08:48;;;;;;;15.97;3.63;;;;;;;;;;5052362;28;20971;-79
2022/06/17 12:11:18;;;;;;;14.10;3.30;;;;;;;;;;5052241;28;21024;-79
2022/06/17 12:13:48;;;;;;;18.20;4.47;;;;;;;;;;5051994;28;21016;-79
2022/06/17 12:16:22;;;;;;;12.80;3.13;;;;;;;;;;5052115;28;20832;-80
2022/06/17 12:18:54;;;;;;;14.83;3.40;;;;;;;;;;5052276;28;20479;-80
2022/06/17 12:21:29;;;;;;;13.60;3.53;;;;;;;;;;5052103;28;20440;-79
2022/06/17 12:24:00;;;;;;;13.10;3.13;;;;;;;;;;5052352;28;20460;-79
2022/06/17 12:26:31;;;;;;;17.00;3.07;;;;;;;;;;5052296;28;20447;-79
2022/06/17 12:29:01;;;;;;;13.10;3.10;;;;;;;;;;5052472;28;20446;-80
2022/06/17 12:31:44;;;;;;;13.70;3.57;;;;;;;;;;5051816;28;20448;-80
2022/06/17 12:34:16;;;;;;;12.77;2.70;;;;;;;;;;5051925;28;20538;-80
2022/06/17 12:36:47;;;;;;;17.40;3.00;;;;;;;;;;5052060;28;20451;-82
2022/06/17 12:39:19;;;;;;;12.20;2.73;;;;;;;;;;5052110;28;20514;-82
2022/06/17 12:41:50;;;;;;;15.43;3.73;;;;;;;;;;5051568;28;20439;-82
2022/06/17 12:44:22;;;;;;;14.43;3.60;;;;;;;;;;5051799;28;20446;-79
2022/06/17 12:46:56;;;;;;;13.30;3.00;;;;;;;;;;5052076;28;20440;-79
2022/06/17 12:55:22;;;;;;;14.10;3.40;;;;;;;;;;5046810;28;20447;-80
2022/06/17 12:57:53;;;;;;;14.20;3.07;;;;;;;;;;5051654;28;20482;-79
2022/06/17 13:00:21;;;;;;;13.67;2.63;;;;;;;;;;5051806;28;20518;-80
2022/06/17 13:02:58;;;;;;;13.77;3.10;;;;;;;;;;5051596;28;20444;-79
2022/06/17 13:05:27;;;;;;;13.70;3.00;;;;;;;;;;5051496;28;20443;-80
2022/06/17 13:08:02;;;;;;;13.60;3.10;;;;;;;;;;5051510;28;20531;-79
2022/06/17 13:10:42;;;;;;;15.47;3.63;;;;;;;;;;5051683;28;21062;-79
2022/06/17 13:13:17;;;;;;;14.10;3.47;;;;;;;;;;5051636;28;20991;-80
2022/06/17 13:15:46;;;;;;;16.80;4.30;;;;;;;;;;5051356;28;20430;-81
2022/06/17 13:18:19;;;;;;;15.80;3.30;;;;;;;;;;5051644;28;20480;-80
2022/06/17 13:20:51;;;;;;;14.20;2.57;;;;;;;;;;5051778;28;20477;-80
2022/06/17 13:23:23;;;;;;;14.00;3.00;;;;;;;;;;5051573;28;20443;-80
2022/06/17 13:25:52;;;;;;;14.40;3.37;;;;;;;;;;5051568;28;20986;-80
2022/06/17 13:28:24;;;;;;;17.20;3.50;;;;;;;;;;5051306;28;20472;-80
2022/06/17 13:30:55;;;;;;;14.60;3.23;;;;;;;;;;5051518;28;20446;-79
2022/06/17 13:33:29;;;;;;;14.73;3.60;;;;;;;;;;5051526;28;20443;-79
2022/06/17 13:35:59;;;;;;;13.07;3.13;;;;;;;;;;5051484;28;20442;-80
2022/06/17 13:38:29;;;;;;;16.70;3.30;;;;;;;;;;5051258;28;21008;-79
2022/06/17 13:41:02;;;;;;;14.20;3.03;;;;;;;;;;5051538;28;20446;-79
2022/06/17 13:43:33;;;;;;;13.47;3.27;;;;;;;;;;5054819;28;20523;-79
2022/06/17 13:46:04;;;;;;;15.53;2.83;;;;;;;;;;5055276;28;20510;-80
2022/06/17 13:48:38;;;;;;;13.70;3.27;;;;;;;;;;5055345;28;20452;-80
2022/06/17 13:51:12;;;;;;;13.40;2.77;;;;;;;;;;5054889;28;20435;-80
2022/06/17 13:53:45;;;;;;;15.10;3.10;;;;;;;;;;5054758;28;20439;-79
2022/06/17 13:56:17;;;;;;;17.83;3.50;;;;;;;;;;5055169;28;20531;-79
2022/06/17 13:58:53;;;;;;;15.73;3.90;;;;;;;;;;5055479;28;20880;-79
2022/06/17 14:01:32;;;;;;;13.60;3.10;;;;;;;;;;5054976;28;20949;-79
2022/06/17 14:04:16;;;;;;;14.17;2.97;;;;;;;;;;5054687;28;20477;-79
2022/06/17 14:06:56;;;;;;;15.00;3.43;;;;;;;;;;5054716;28;20522;-79
2022/06/17 14:09:26;;;;;;;14.37;3.10;;;;;;;;;;5054738;28;20466;-79
2022/06/17 14:11:54;;;;;;;14.47;4.07;;;;;;;;;;5054593;28;20468;-80
2022/06/17 14:14:34;;;;;;;14.30;3.63;;;;;;;;;;5054441;28;20530;-79
2022/06/17 14:17:05;;;;;;;14.30;3.23;;;;;;;;;;5054419;28;20953;-82
2022/06/17 14:19:36;;;;;;;15.80;3.43;;;;;;;;;;5052764;28;20481;-83
2022/06/17 14:22:05;;;;;;;16.67;4.40;;;;;;;;;;5049931;28;20882;-78
2022/06/17 14:24:50;;;;;;;15.00;3.27;;;;;;;;;;5063092;28;20505;-79
2022/06/17 14:27:33;;;;;;;17.10;4.80;;;;;;;;;;5065900;28;20467;-81
2022/06/17 14:30:15;;;;;;;17.90;4.83;;;;;;;;;;5065453;28;20475;-81
2022/06/17 14:32:55;;;;;;;15.00;4.00;;;;;;;;;;5065451;28;20508;-81
2022/06/17 14:35:30;;;;;;;15.60;3.90;;;;;;;;;;5065288;28;20474;-80
2022/06/17 14:38:09;;;;;;;15.60;3.77;;;;;;;;;;5061421;28;20497;-81
2022/06/17 14:43:24;;;;;;;18.47;4.13;;;;;;;;;;5072983;28;20493;-81
2022/06/17 14:45:54;;;;;;;18.87;4.40;;;;;;;;;;5073116;28;21023;-81
2022/06/17 14:48:24;;;;;;;18.10;5.30;;;;;;;;;;5073275;28;20478;-82
2022/06/17 14:50:55;;;;;;;17.63;5.37;;;;;;;;;;5073196;28;20924;-81
2022/06/17 14:53:35;;;;;;;16.50;4.87;;;;;;;;;;5071252;28;20568;-81
2022/06/17 14:56:08;;;;;;;17.60;5.17;;;;;;;;;;5072062;28;20557;-82
2022/06/17 14:58:43;;;;;;;16.70;5.43;;;;;;;;;;5072538;28;20502;-83
2022/06/17 15:01:17;;;;;;;15.13;4.43;;;;;;;;;;5072358;28;20469;-82
2022/06/17 15:03:46;;;;;;;20.73;6.70;;;;;;;;;;5072180;28;20549;-81